createdAt,value
2018-07-02T00:00:38.036Z,0.00
2018-07-02T00:01:38.035Z,0.00
2018-07-02T00:02:38.037Z,0.00
2018-07-02T00:03:38.034Z,0.00
2018-07-02T00:04:38.029Z,0.00
2018-07-02T00:05:38.028Z,0.00
2018-07-02T00:06:38.027Z,0.00
2018-07-02T00:07:38.027Z,0.00
2018-07-02T00:08:38.027Z,0.00
2018-07-02T00:09:38.027Z,0.00
2018-07-02T00:10:38.028Z,0.00
2018-07-02T00:11:38.024Z,0.00
2018-07-02T00:12:38.022Z,0.00
2018-07-02T00:13:38.016Z,0.00
2018-07-02T00:14:38.015Z,0.00
2018-07-02T00:15:38.011Z,0.00
2018-07-02T00:16:38.014Z,0.00
2018-07-02T00:17:38.014Z,0.00
2018-07-02T00:18:38.008Z,0.00
2018-07-02T00:19:38.004Z,0.00
2018-07-02T00:20:38.007Z,0.00
2018-07-02T00:21:38.006Z,0.00
2018-07-02T00:22:38.008Z,0.00
2018-07-02T00:23:38.006Z,0.00
2018-07-02T00:24:37.996Z,0.00
2018-07-02T00:25:37.995Z,0.00
2018-07-02T00:26:37.992Z,0.00
2018-07-02T00:27:37.991Z,0.00
2018-07-02T00:28:37.994Z,0.00
2018-07-02T00:29:37.993Z,0.00
2018-07-02T00:30:37.993Z,0.00
2018-07-02T00:31:38.049Z,0.00
2018-07-02T00:32:37.981Z,0.00
2018-07-02T00:33:37.980Z,0.00
2018-07-02T00:34:37.982Z,0.00
2018-07-02T00:35:37.979Z,0.00
2018-07-02T00:36:37.974Z,0.00
2018-07-02T00:37:37.973Z,0.00
2018-07-02T00:38:37.971Z,0.00
2018-07-02T00:39:37.968Z,0.00
2018-07-02T00:40:37.971Z,0.00
2018-07-02T00:41:37.971Z,0.00
2018-07-02T00:42:38.003Z,0.00
2018-07-02T00:43:37.967Z,0.00
2018-07-02T00:44:37.961Z,0.00
2018-07-02T00:45:37.958Z,0.00
2018-07-02T00:46:37.956Z,0.00
2018-07-02T00:47:37.954Z,0.00
2018-07-02T00:48:37.957Z,0.00
2018-07-02T00:49:37.957Z,0.00
2018-07-02T00:50:37.949Z,0.00
2018-07-02T00:51:37.946Z,0.00
2018-07-02T00:52:37.948Z,0.00
2018-07-02T00:53:37.947Z,0.00
2018-07-02T00:54:37.945Z,0.00
2018-07-02T00:55:37.942Z,0.00
2018-07-02T00:56:37.936Z,0.00
2018-07-02T00:57:37.934Z,0.00
2018-07-02T00:58:37.933Z,0.00
2018-07-02T00:59:37.930Z,0.00
2018-07-02T01:00:37.934Z,0.00
2018-07-02T01:01:37.932Z,0.00
2018-07-02T01:02:37.928Z,0.00
2018-07-02T01:03:37.925Z,0.00
2018-07-02T01:04:37.920Z,0.00
2018-07-02T01:05:37.918Z,0.00
2018-07-02T01:06:37.920Z,0.00
2018-07-02T01:07:37.917Z,0.00
2018-07-02T01:08:37.911Z,0.00
2018-07-02T01:09:37.911Z,0.00
2018-07-02T01:10:37.907Z,0.00
2018-07-02T01:11:37.904Z,0.00
2018-07-02T01:12:37.907Z,0.00
2018-07-02T01:13:37.907Z,0.00
2018-07-02T01:14:37.903Z,0.00
2018-07-02T01:15:37.900Z,0.00
2018-07-02T01:16:37.895Z,0.00
2018-07-02T01:17:37.891Z,0.00
2018-07-02T01:18:37.889Z,0.00
2018-07-02T01:19:37.887Z,0.00
2018-07-02T01:20:37.890Z,0.00
2018-07-02T01:21:37.889Z,0.00
2018-07-02T01:22:37.881Z,0.00
2018-07-02T01:23:37.878Z,0.00
2018-07-02T01:24:37.880Z,0.00
2018-07-02T01:25:37.880Z,0.00
2018-07-02T01:26:37.874Z,0.00
2018-07-02T01:27:37.872Z,0.00
2018-07-02T01:28:37.866Z,0.00
2018-07-02T01:29:37.867Z,0.00
2018-07-02T01:30:37.860Z,0.00
2018-07-02T01:31:37.856Z,0.00
2018-07-02T01:32:37.863Z,0.00
2018-07-02T01:33:37.860Z,0.00
2018-07-02T01:34:37.854Z,0.00
2018-07-02T01:35:37.854Z,0.00
2018-07-02T01:36:37.844Z,0.00
2018-07-02T01:37:37.841Z,0.00
2018-07-02T01:38:37.842Z,0.00
2018-07-02T01:39:37.843Z,0.00
2018-07-02T01:40:37.832Z,0.00
2018-07-02T01:41:37.829Z,0.00
2018-07-02T01:42:37.828Z,0.00
2018-07-02T01:43:37.825Z,0.00
2018-07-02T01:44:37.827Z,0.00
2018-07-02T01:45:37.824Z,0.00
2018-07-02T01:46:37.821Z,0.00
2018-07-02T01:47:37.819Z,0.00
2018-07-02T01:48:37.810Z,0.00
2018-07-02T01:49:37.809Z,0.00
2018-07-02T01:50:37.806Z,0.00
2018-07-02T01:51:37.800Z,0.00
2018-07-02T01:52:37.805Z,0.00
2018-07-02T01:53:37.799Z,0.00
2018-07-02T01:54:37.795Z,0.00
2018-07-02T01:55:37.788Z,0.00
2018-07-02T01:56:37.791Z,0.00
2018-07-02T01:57:37.786Z,0.00
2018-07-02T01:58:37.785Z,0.00
2018-07-02T01:59:37.780Z,0.00
2018-07-02T02:00:37.775Z,0.00
2018-07-02T02:01:37.770Z,0.00
2018-07-02T02:02:37.769Z,0.00
2018-07-02T02:03:37.763Z,0.00
2018-07-02T02:04:37.765Z,0.00
2018-07-02T02:05:37.762Z,0.00
2018-07-02T02:06:37.762Z,0.00
2018-07-02T02:07:37.757Z,0.00
2018-07-02T02:08:37.748Z,0.00
2018-07-02T02:09:37.744Z,0.00
2018-07-02T02:10:37.748Z,0.00
2018-07-02T02:11:37.749Z,0.00
2018-07-02T02:12:37.736Z,0.00
2018-07-02T02:13:37.732Z,0.00
2018-07-02T02:14:37.729Z,0.00
2018-07-02T02:15:37.725Z,0.00
2018-07-02T02:16:37.729Z,0.00
2018-07-02T02:17:37.724Z,0.00
2018-07-02T02:18:37.719Z,0.00
2018-07-02T02:19:37.715Z,0.00
2018-07-02T02:20:37.710Z,0.00
2018-07-02T02:21:37.706Z,0.00
2018-07-02T02:22:37.703Z,0.00
2018-07-02T02:23:37.699Z,0.00
2018-07-02T02:24:37.702Z,0.00
2018-07-02T02:25:37.696Z,0.00
2018-07-02T02:26:37.688Z,0.00
2018-07-02T02:27:37.684Z,0.00
2018-07-02T02:28:37.688Z,0.00
2018-07-02T02:29:37.683Z,0.00
2018-07-02T02:30:37.679Z,0.00
2018-07-02T02:31:37.674Z,0.00
2018-07-02T02:32:37.666Z,0.00
2018-07-02T02:33:37.666Z,0.00
2018-07-02T02:34:37.663Z,0.00
2018-07-02T02:35:37.657Z,4.00
2018-07-02T02:36:37.658Z,4.00
2018-07-02T02:37:37.655Z,0.00
2018-07-02T02:38:37.651Z,0.00
2018-07-02T02:39:37.655Z,0.00
2018-07-02T02:40:37.651Z,4.00
2018-07-02T02:41:37.635Z,4.00
2018-07-02T02:42:37.637Z,4.00
2018-07-02T02:43:37.632Z,4.00
2018-07-02T02:44:37.625Z,4.00
2018-07-02T02:45:37.621Z,4.00
2018-07-02T02:46:37.620Z,4.00
2018-07-02T02:47:37.613Z,8.00
2018-07-02T02:48:37.613Z,4.00
2018-07-02T02:49:37.610Z,4.00
2018-07-02T02:50:37.607Z,12.00
2018-07-02T02:51:37.602Z,12.00
2018-07-02T02:52:37.595Z,12.00
2018-07-02T02:53:37.592Z,16.00
2018-07-02T02:54:37.591Z,12.00
2018-07-02T02:55:37.588Z,16.00
2018-07-02T02:56:37.586Z,20.00
2018-07-02T02:57:37.584Z,20.00
2018-07-02T02:58:37.573Z,24.00
2018-07-02T02:59:37.573Z,24.00
2018-07-02T03:00:37.573Z,28.00
2018-07-02T03:01:37.569Z,32.00
2018-07-02T03:02:37.563Z,36.00
2018-07-02T03:03:37.559Z,40.00
2018-07-02T03:04:37.551Z,48.00
2018-07-02T03:05:37.548Z,52.00
2018-07-02T03:06:37.544Z,56.00
2018-07-02T03:07:37.544Z,60.00
2018-07-02T03:08:37.541Z,68.00
2018-07-02T03:09:37.556Z,76.00
2018-07-02T03:10:37.534Z,84.00
2018-07-02T03:11:37.530Z,88.00
2018-07-02T03:12:37.528Z,100.00
2018-07-02T03:13:37.518Z,104.00
2018-07-02T03:14:37.519Z,116.00
2018-07-02T03:15:37.514Z,128.00
2018-07-02T03:16:37.507Z,140.00
2018-07-02T03:17:37.503Z,148.00
2018-07-02T03:18:37.501Z,160.00
2018-07-02T03:19:37.495Z,172.00
2018-07-02T03:20:37.497Z,188.00
2018-07-02T03:21:37.494Z,200.00
2018-07-02T03:22:37.491Z,220.00
2018-07-02T03:23:37.491Z,232.00
2018-07-02T03:24:37.478Z,252.00
2018-07-02T03:25:37.475Z,268.00
2018-07-02T03:26:37.470Z,284.00
2018-07-02T03:27:37.466Z,304.00
2018-07-02T03:28:37.466Z,320.00
2018-07-02T03:29:37.464Z,340.00
2018-07-02T03:30:37.455Z,360.00
2018-07-02T03:31:37.451Z,380.00
2018-07-02T03:32:37.450Z,400.00
2018-07-02T03:33:37.447Z,420.00
2018-07-02T03:34:37.445Z,444.00
2018-07-02T03:35:37.440Z,464.00
2018-07-02T03:36:37.432Z,492.00
2018-07-02T03:37:37.429Z,512.00
2018-07-02T03:38:37.425Z,536.00
2018-07-02T03:39:37.420Z,564.00
2018-07-02T03:40:37.422Z,584.00
2018-07-02T03:41:37.418Z,608.00
2018-07-02T03:42:37.413Z,636.00
2018-07-02T03:43:37.409Z,660.00
2018-07-02T03:44:37.401Z,684.00
2018-07-02T03:45:37.397Z,708.00
2018-07-02T03:46:37.398Z,736.00
2018-07-02T03:47:37.393Z,760.00
2018-07-02T03:48:37.385Z,788.00
2018-07-02T03:49:37.382Z,812.00
2018-07-02T03:50:37.379Z,840.00
2018-07-02T03:51:37.374Z,864.00
2018-07-02T03:52:37.376Z,892.00
2018-07-02T03:53:37.373Z,916.00
2018-07-02T03:54:37.375Z,944.00
2018-07-02T03:55:37.363Z,968.00
2018-07-02T03:56:37.356Z,992.00
2018-07-02T03:57:37.351Z,1016.00
2018-07-02T03:58:37.347Z,1044.00
2018-07-02T03:59:37.345Z,1068.00
2018-07-02T04:00:37.344Z,1092.00
2018-07-02T04:01:37.340Z,1120.00
2018-07-02T04:02:37.334Z,1144.00
2018-07-02T04:03:37.328Z,1172.00
2018-07-02T04:04:37.328Z,1196.00
2018-07-02T04:05:37.326Z,1224.00
2018-07-02T04:06:37.323Z,1252.00
2018-07-02T04:07:37.318Z,1276.00
2018-07-02T04:08:37.310Z,1304.00
2018-07-02T04:09:37.305Z,1328.00
2018-07-02T04:10:37.302Z,1356.00
2018-07-02T04:11:37.298Z,1384.00
2018-07-02T04:12:37.299Z,1412.00
2018-07-02T04:13:37.295Z,1436.00
2018-07-02T04:14:37.292Z,1464.00
2018-07-02T04:15:37.288Z,1484.00
2018-07-02T04:16:37.279Z,1516.00
2018-07-02T04:17:37.275Z,1540.00
2018-07-02T04:18:37.277Z,1568.00
2018-07-02T04:19:37.272Z,1596.00
2018-07-02T04:20:37.264Z,1624.00
2018-07-02T04:21:37.261Z,1648.00
2018-07-02T04:22:37.257Z,1676.00
2018-07-02T04:23:37.252Z,1700.00
2018-07-02T04:24:37.253Z,1732.00
2018-07-02T04:25:37.249Z,1756.00
2018-07-02T04:26:37.246Z,1776.00
2018-07-02T04:27:37.242Z,1800.00
2018-07-02T04:28:37.235Z,1820.00
2018-07-02T04:29:37.230Z,1840.00
2018-07-02T04:30:37.228Z,1864.00
2018-07-02T04:31:37.223Z,1900.00
2018-07-02T04:32:37.245Z,1928.00
2018-07-02T04:33:37.222Z,1948.00
2018-07-02T04:34:37.212Z,1976.00
2018-07-02T04:35:37.208Z,2020.00
2018-07-02T04:36:37.211Z,2056.00
2018-07-02T04:37:37.207Z,2076.00
2018-07-02T04:38:37.202Z,2104.00
2018-07-02T04:39:37.200Z,2132.00
2018-07-02T04:40:37.190Z,2136.00
2018-07-02T04:41:37.187Z,2140.00
2018-07-02T04:42:37.182Z,2156.00
2018-07-02T04:43:37.177Z,2180.00
2018-07-02T04:44:37.181Z,2208.00
2018-07-02T04:45:37.176Z,2232.00
2018-07-02T04:46:37.174Z,2260.00
2018-07-02T04:47:37.170Z,2292.00
2018-07-02T04:48:37.161Z,2320.00
2018-07-02T04:49:37.158Z,2348.00
2018-07-02T04:50:37.160Z,2384.00
2018-07-02T04:51:37.160Z,2420.00
2018-07-02T04:52:37.147Z,2460.00
2018-07-02T04:53:37.149Z,2492.00
2018-07-02T04:54:37.141Z,2536.00
2018-07-02T04:55:37.136Z,2612.00
2018-07-02T04:56:37.137Z,2776.00
2018-07-02T04:57:37.134Z,3096.00
2018-07-02T04:58:37.131Z,3964.00
2018-07-02T04:59:37.170Z,7088.00
2018-07-02T05:00:37.119Z,12144.00
2018-07-02T05:01:37.116Z,14912.00
2018-07-02T05:02:37.113Z,15648.00
2018-07-02T05:03:37.109Z,16160.00
2018-07-02T05:04:37.112Z,16704.00
2018-07-02T05:05:37.108Z,17216.00
2018-07-02T05:06:37.102Z,17664.00
2018-07-02T05:07:37.150Z,18176.00
2018-07-02T05:08:37.103Z,18592.00
2018-07-02T05:09:37.103Z,18976.00
2018-07-02T05:10:37.097Z,19424.00
2018-07-02T05:11:37.095Z,19808.00
2018-07-02T05:12:37.090Z,20128.00
2018-07-02T05:13:37.090Z,20448.00
2018-07-02T05:14:37.095Z,20800.00
2018-07-02T05:15:37.093Z,21088.00
2018-07-02T05:16:37.090Z,21408.00
2018-07-02T05:17:37.090Z,21664.00
2018-07-02T05:18:37.090Z,22016.00
2018-07-02T05:19:37.090Z,22272.00
2018-07-02T05:20:37.097Z,22560.00
2018-07-02T05:21:37.098Z,22816.00
2018-07-02T05:22:37.095Z,23040.00
2018-07-02T05:23:37.096Z,23296.00
2018-07-02T05:24:37.104Z,23584.00
2018-07-02T05:25:37.106Z,23808.00
2018-07-02T05:26:37.110Z,24032.00
2018-07-02T05:27:37.114Z,24224.00
2018-07-02T05:28:37.110Z,24448.00
2018-07-02T05:29:37.113Z,24640.00
2018-07-02T05:30:37.116Z,24832.00
2018-07-02T05:31:37.120Z,25024.00
2018-07-02T05:32:37.127Z,25248.00
2018-07-02T05:33:37.132Z,25440.00
2018-07-02T05:34:37.254Z,25632.00
2018-07-02T05:35:37.140Z,25856.00
2018-07-02T05:36:37.139Z,26016.00
2018-07-02T05:37:37.144Z,26176.00
2018-07-02T05:38:37.152Z,26336.00
2018-07-02T05:39:37.157Z,26496.00
2018-07-02T05:40:37.156Z,26688.00
2018-07-02T05:41:37.162Z,26816.00
2018-07-02T05:42:37.168Z,26976.00
2018-07-02T05:43:37.172Z,27136.00
2018-07-02T05:44:37.184Z,27328.00
2018-07-02T05:45:37.189Z,27488.00
2018-07-02T05:46:37.195Z,27616.00
2018-07-02T05:47:37.199Z,27808.00
2018-07-02T05:48:37.224Z,27904.00
2018-07-02T05:49:37.206Z,28032.00
2018-07-02T05:50:37.212Z,28160.00
2018-07-02T05:51:37.337Z,28320.00
2018-07-02T05:52:37.230Z,28448.00
2018-07-02T05:53:37.235Z,28640.00
2018-07-02T05:54:37.236Z,28768.00
2018-07-02T05:55:37.242Z,28800.00
2018-07-02T05:56:37.253Z,28992.00
2018-07-02T05:57:37.261Z,29088.00
2018-07-02T05:58:37.267Z,29312.00
2018-07-02T05:59:37.275Z,29376.00
2018-07-02T06:00:37.370Z,29536.00
2018-07-02T06:01:37.284Z,29632.00
2018-07-02T06:02:37.292Z,29856.00
2018-07-02T06:03:37.298Z,29952.00
2018-07-02T06:04:37.310Z,30112.00
2018-07-02T06:05:37.319Z,30240.00
2018-07-02T06:06:37.325Z,30336.00
2018-07-02T06:07:37.333Z,30464.00
2018-07-02T06:08:37.336Z,30592.00
2018-07-02T06:09:37.345Z,30720.00
2018-07-02T06:10:37.356Z,30848.00
2018-07-02T06:11:37.366Z,30944.00
2018-07-02T06:12:37.368Z,31200.00
2018-07-02T06:13:37.377Z,31200.00
2018-07-02T06:14:37.386Z,31328.00
2018-07-02T06:15:37.394Z,31424.00
2018-07-02T06:16:37.462Z,31616.00
2018-07-02T06:17:37.417Z,31744.00
2018-07-02T06:18:37.426Z,31808.00
2018-07-02T06:19:37.434Z,31936.00
2018-07-02T06:20:37.439Z,32064.00
2018-07-02T06:21:37.454Z,32192.00
2018-07-02T06:22:37.460Z,32320.00
2018-07-02T06:23:37.468Z,32448.00
2018-07-02T06:24:37.483Z,32544.00
2018-07-02T06:25:37.494Z,32736.00
2018-07-02T06:26:37.498Z,32800.00
2018-07-02T06:27:37.508Z,32864.00
2018-07-02T06:28:37.523Z,33024.00
2018-07-02T06:29:37.534Z,33088.00
2018-07-02T06:30:37.543Z,33216.00
2018-07-02T06:31:37.552Z,33376.00
2018-07-02T06:32:37.558Z,33504.00
2018-07-02T06:33:37.569Z,33632.00
2018-07-02T06:34:37.580Z,33792.00
2018-07-02T06:35:37.590Z,33952.00
2018-07-02T06:36:37.605Z,34048.00
2018-07-02T06:37:37.616Z,34144.00
2018-07-02T06:38:37.628Z,34240.00
2018-07-02T06:39:37.637Z,34336.00
2018-07-02T06:40:37.643Z,34496.00
2018-07-02T06:41:37.655Z,34560.00
2018-07-02T06:42:37.672Z,34528.00
2018-07-02T06:43:37.682Z,34880.00
2018-07-02T06:44:37.688Z,34976.00
2018-07-02T06:45:37.699Z,35104.00
2018-07-02T06:46:37.710Z,35264.00
2018-07-02T06:47:37.723Z,35392.00
2018-07-02T06:48:37.738Z,35552.00
2018-07-02T06:49:37.748Z,35744.00
2018-07-02T06:50:37.759Z,35968.00
2018-07-02T06:51:37.770Z,36288.00
2018-07-02T06:52:37.777Z,36736.00
2018-07-02T06:53:37.790Z,37120.00
2018-07-02T06:54:37.802Z,37504.00
2018-07-02T06:55:37.811Z,37664.00
2018-07-02T06:56:37.828Z,38144.00
2018-07-02T06:57:37.840Z,38752.00
2018-07-02T06:58:37.869Z,39456.00
2018-07-02T06:59:37.858Z,40256.00
2018-07-02T07:00:37.875Z,41504.00
2018-07-02T07:01:37.890Z,43296.00
2018-07-02T07:02:37.902Z,46048.00
2018-07-02T07:03:37.915Z,48640.00
2018-07-02T07:04:37.919Z,56352.00
2018-07-02T07:05:37.933Z,63008.00
2018-07-02T07:06:37.946Z,62016.00
2018-07-02T07:07:37.957Z,57728.00
2018-07-02T07:08:38.028Z,56608.00
2018-07-02T07:09:37.987Z,57664.00
2018-07-02T07:10:38.005Z,58816.00
2018-07-02T07:11:38.014Z,57472.00
2018-07-02T07:12:38.024Z,58624.00
2018-07-02T07:13:38.036Z,61600.00
2018-07-02T07:14:38.053Z,64160.00
2018-07-02T07:15:38.092Z,66464.00
2018-07-02T07:16:38.075Z,67264.00
2018-07-02T07:17:38.089Z,68672.00
2018-07-02T07:18:38.104Z,72256.00
2018-07-02T07:19:38.119Z,70944.00
2018-07-02T07:20:38.133Z,76352.00
2018-07-02T07:21:38.146Z,86592.00
2018-07-02T07:22:38.162Z,94208.00
2018-07-02T07:23:38.174Z,93056.00
2018-07-02T07:24:38.183Z,91840.00
2018-07-02T07:25:38.197Z,89472.00
2018-07-02T07:26:38.210Z,89056.00
2018-07-02T07:27:38.237Z,93280.00
2018-07-02T07:28:38.241Z,89600.00
2018-07-02T07:29:38.256Z,89696.00
2018-07-02T07:30:38.265Z,99904.00
2018-07-02T07:31:38.278Z,106272.00
2018-07-02T07:32:38.297Z,99968.00
2018-07-02T07:33:38.310Z,92384.00
2018-07-02T07:34:38.326Z,90272.00
2018-07-02T07:35:38.338Z,95200.00
2018-07-02T07:36:38.352Z,91904.00
2018-07-02T07:37:38.362Z,83264.00
2018-07-02T07:38:38.376Z,79936.00
2018-07-02T07:39:38.390Z,80416.00
2018-07-02T07:40:38.409Z,78240.00
2018-07-02T07:41:38.424Z,72864.00
2018-07-02T07:42:38.437Z,69408.00
2018-07-02T07:43:38.450Z,73760.00
2018-07-02T07:44:38.460Z,75584.00
2018-07-02T07:45:38.474Z,73120.00
2018-07-02T07:46:38.494Z,67584.00
2018-07-02T07:47:38.507Z,67744.00
2018-07-02T07:48:38.517Z,72928.00
2018-07-02T07:49:38.534Z,78336.00
2018-07-02T07:50:38.547Z,70848.00
2018-07-02T07:51:38.560Z,56512.00
2018-07-02T07:52:38.580Z,55904.00
2018-07-02T07:53:38.596Z,60864.00
2018-07-02T07:54:38.609Z,62112.00
2018-07-02T07:55:38.624Z,61632.00
2018-07-02T07:56:38.637Z,59648.00
2018-07-02T07:57:38.648Z,58688.00
2018-07-02T07:58:38.661Z,59360.00
2018-07-02T07:59:38.677Z,58400.00
2018-07-02T08:00:38.694Z,56608.00
2018-07-02T08:01:38.709Z,57440.00
2018-07-02T08:02:38.719Z,59712.00
2018-07-02T08:03:38.744Z,61152.00
2018-07-02T08:04:38.754Z,58240.00
2018-07-02T08:05:38.768Z,54688.00
2018-07-02T08:06:38.785Z,55680.00
2018-07-02T08:07:38.800Z,59808.00
2018-07-02T08:08:38.815Z,62368.00
2018-07-02T08:09:38.824Z,61728.00
2018-07-02T08:10:38.839Z,58464.00
2018-07-02T08:11:38.854Z,54720.00
2018-07-02T08:12:38.875Z,53888.00
2018-07-02T08:13:38.890Z,55328.00
2018-07-02T08:14:38.904Z,55264.00
2018-07-02T08:15:38.919Z,55904.00
2018-07-02T08:16:38.931Z,55872.00
2018-07-02T08:17:38.947Z,54688.00
2018-07-02T08:18:38.966Z,53536.00
2018-07-02T08:19:38.981Z,51776.00
2018-07-02T08:20:38.992Z,52320.00
2018-07-02T08:21:39.009Z,52640.00
2018-07-02T08:22:39.025Z,53152.00
2018-07-02T08:23:39.041Z,53888.00
2018-07-02T08:24:39.062Z,55296.00
2018-07-02T08:25:39.079Z,53792.00
2018-07-02T08:26:39.099Z,53280.00
2018-07-02T08:27:39.113Z,56864.00
2018-07-02T08:28:39.122Z,59488.00
2018-07-02T08:29:39.139Z,57728.00
2018-07-02T08:30:39.157Z,53504.00
2018-07-02T08:31:39.172Z,50976.00
2018-07-02T08:32:39.194Z,53664.00
2018-07-02T08:33:39.212Z,57152.00
2018-07-02T08:34:39.224Z,58496.00
2018-07-02T08:35:39.240Z,56832.00
2018-07-02T08:36:39.263Z,58880.00
2018-07-02T08:37:39.278Z,61088.00
2018-07-02T08:38:39.295Z,58336.00
2018-07-02T08:39:39.310Z,56928.00
2018-07-02T08:40:39.323Z,60160.00
2018-07-02T08:41:39.340Z,65952.00
2018-07-02T08:42:39.358Z,73600.00
2018-07-02T08:43:39.372Z,71776.00
2018-07-02T08:44:39.393Z,61280.00
2018-07-02T08:45:39.410Z,54976.00
2018-07-02T08:46:39.479Z,50592.00
2018-07-02T08:47:39.444Z,49664.00
2018-07-02T08:48:39.457Z,49312.00
2018-07-02T08:49:39.473Z,47968.00
2018-07-02T08:50:39.496Z,46624.00
2018-07-02T08:51:39.514Z,45888.00
2018-07-02T08:52:39.579Z,45600.00
2018-07-02T08:53:39.542Z,45344.00
2018-07-02T08:54:39.561Z,45344.00
2018-07-02T08:55:39.577Z,45824.00
2018-07-02T08:56:39.597Z,45728.00
2018-07-02T08:57:39.614Z,46048.00
2018-07-02T08:58:39.631Z,45984.00
2018-07-02T08:59:39.648Z,46336.00
2018-07-02T09:00:39.661Z,46784.00
2018-07-02T09:01:39.678Z,47232.00
2018-07-02T09:02:39.696Z,47744.00
2018-07-02T09:03:39.712Z,47872.00
2018-07-02T09:04:39.734Z,48000.00
2018-07-02T09:05:39.753Z,48288.00
2018-07-02T09:06:39.765Z,48416.00
2018-07-02T09:07:39.781Z,48384.00
2018-07-02T09:08:39.804Z,48832.00
2018-07-02T09:09:39.821Z,48800.00
2018-07-02T09:10:39.839Z,49056.00
2018-07-02T09:11:39.856Z,49120.00
2018-07-02T09:12:39.868Z,49472.00
2018-07-02T09:13:39.884Z,49664.00
2018-07-02T09:14:39.964Z,49600.00
2018-07-02T09:15:39.919Z,50048.00
2018-07-02T09:16:39.941Z,49664.00
2018-07-02T09:17:39.959Z,49664.00
2018-07-02T09:18:39.975Z,49792.00
2018-07-02T09:19:39.992Z,49824.00
2018-07-02T09:20:40.064Z,49568.00
2018-07-02T09:21:40.023Z,49472.00
2018-07-02T09:22:40.045Z,48960.00
2018-07-02T09:23:40.062Z,48864.00
2018-07-02T09:24:40.073Z,48448.00
2018-07-02T09:25:40.092Z,48448.00
2018-07-02T09:26:40.109Z,48352.00
2018-07-02T09:27:40.123Z,48352.00
2018-07-02T09:28:40.151Z,48480.00
2018-07-02T09:29:40.163Z,47776.00
2018-07-02T09:30:40.182Z,47648.00
2018-07-02T09:31:40.199Z,47264.00
2018-07-02T09:32:40.220Z,47296.00
2018-07-02T09:33:40.237Z,47232.00
2018-07-02T09:34:40.250Z,46656.00
2018-07-02T09:35:40.268Z,46432.00
2018-07-02T09:36:40.294Z,46272.00
2018-07-02T09:37:40.315Z,46016.00
2018-07-02T09:38:40.324Z,45696.00
2018-07-02T09:39:40.341Z,45280.00
2018-07-02T09:40:40.365Z,44960.00
2018-07-02T09:41:40.386Z,44768.00
2018-07-02T09:42:40.400Z,45280.00
2018-07-02T09:43:40.418Z,45984.00
2018-07-02T09:44:40.433Z,56384.00
2018-07-02T09:45:40.451Z,78400.00
2018-07-02T09:46:40.469Z,99616.00
2018-07-02T09:47:40.486Z,100224.00
2018-07-02T09:48:40.508Z,91520.00
2018-07-02T09:49:40.527Z,87520.00
2018-07-02T09:50:40.545Z,92672.00
2018-07-02T09:51:40.563Z,96768.00
2018-07-02T09:52:40.576Z,97504.00
2018-07-02T09:53:40.595Z,92608.00
2018-07-02T09:54:40.618Z,91840.00
2018-07-02T09:55:40.635Z,95008.00
2018-07-02T09:56:40.649Z,99200.00
2018-07-02T09:57:40.667Z,98880.00
2018-07-02T09:58:40.686Z,99616.00
2018-07-02T09:59:40.703Z,98848.00
2018-07-02T10:00:40.740Z,97248.00
2018-07-02T10:01:40.749Z,96608.00
2018-07-02T10:02:40.764Z,95808.00
2018-07-02T10:03:40.781Z,94624.00
2018-07-02T10:04:40.795Z,90592.00
2018-07-02T10:05:40.813Z,91776.00
2018-07-02T10:06:40.851Z,92512.00
2018-07-02T10:07:40.849Z,96640.00
2018-07-02T10:08:40.872Z,96448.00
2018-07-02T10:09:40.892Z,96832.00
2018-07-02T10:10:40.904Z,96128.00
2018-07-02T10:11:40.927Z,93984.00
2018-07-02T10:12:41.005Z,94208.00
2018-07-02T10:13:40.962Z,92640.00
2018-07-02T10:14:40.980Z,90208.00
2018-07-02T10:15:40.997Z,85184.00
2018-07-02T10:16:41.014Z,87584.00
2018-07-02T10:17:41.030Z,90336.00
2018-07-02T10:18:41.051Z,89088.00
2018-07-02T10:19:41.065Z,86528.00
2018-07-02T10:20:41.088Z,88128.00
2018-07-02T10:21:41.105Z,91840.00
2018-07-02T10:22:41.127Z,90880.00
2018-07-02T10:23:41.153Z,90976.00
2018-07-02T10:24:41.156Z,90944.00
2018-07-02T10:25:41.173Z,91040.00
2018-07-02T10:26:41.196Z,91136.00
2018-07-02T10:27:41.213Z,90784.00
2018-07-02T10:28:41.226Z,89600.00
2018-07-02T10:29:41.255Z,89504.00
2018-07-02T10:30:41.307Z,89248.00
2018-07-02T10:31:41.281Z,89600.00
2018-07-02T10:32:41.303Z,88768.00
2018-07-02T10:33:41.321Z,86848.00
2018-07-02T10:34:41.370Z,87616.00
2018-07-02T10:35:41.357Z,84608.00
2018-07-02T10:36:41.370Z,84672.00
2018-07-02T10:37:41.387Z,84416.00
2018-07-02T10:38:41.407Z,85536.00
2018-07-02T10:39:41.425Z,84128.00
2018-07-02T10:40:41.447Z,84544.00
2018-07-02T10:41:41.471Z,84640.00
2018-07-02T10:42:41.479Z,82592.00
2018-07-02T10:43:41.496Z,84864.00
2018-07-02T10:44:41.520Z,82816.00
2018-07-02T10:45:41.538Z,85600.00
2018-07-02T10:46:41.556Z,83904.00
2018-07-02T10:47:41.574Z,83808.00
2018-07-02T10:48:41.590Z,84992.00
2018-07-02T10:49:41.607Z,83744.00
2018-07-02T10:50:41.625Z,81504.00
2018-07-02T10:51:41.642Z,81696.00
2018-07-02T10:52:41.665Z,82304.00
2018-07-02T10:53:41.684Z,84736.00
2018-07-02T10:54:41.702Z,83296.00
2018-07-02T10:55:41.779Z,83104.00
2018-07-02T10:56:41.733Z,85856.00
2018-07-02T10:57:41.751Z,85728.00
2018-07-02T10:58:41.774Z,85760.00
2018-07-02T10:59:41.808Z,83552.00
2018-07-02T11:00:41.802Z,88320.00
2018-07-02T11:01:41.820Z,91008.00
2018-07-02T11:02:41.838Z,91136.00
2018-07-02T11:03:41.854Z,93248.00
2018-07-02T11:04:41.878Z,94080.00
2018-07-02T11:05:41.894Z,94304.00
2018-07-02T11:06:41.912Z,93856.00
2018-07-02T11:07:41.935Z,92096.00
2018-07-02T11:08:41.941Z,91520.00
2018-07-02T11:09:41.959Z,92896.00
2018-07-02T11:10:41.976Z,94080.00
2018-07-02T11:11:41.993Z,93536.00
2018-07-02T11:12:42.017Z,88960.00
2018-07-02T11:13:42.034Z,92736.00
2018-07-02T11:14:42.045Z,97568.00
2018-07-02T11:15:42.063Z,100128.00
2018-07-02T11:16:42.084Z,102208.00
2018-07-02T11:17:42.102Z,108608.00
2018-07-02T11:18:42.120Z,113472.00
2018-07-02T11:19:42.138Z,116192.00
2018-07-02T11:20:42.151Z,114048.00
2018-07-02T11:21:42.167Z,112064.00
2018-07-02T11:22:42.185Z,114112.00
2018-07-02T11:23:42.222Z,111040.00
2018-07-02T11:24:42.232Z,61632.00
2018-07-02T11:25:42.238Z,10504.00
2018-07-02T11:26:42.255Z,6600.00
2018-07-02T11:27:42.269Z,5668.00
2018-07-02T11:28:42.284Z,5404.00
2018-07-02T11:29:42.295Z,5276.00
2018-07-02T11:30:42.315Z,5164.00
2018-07-02T11:31:42.329Z,5048.00
2018-07-02T11:32:42.337Z,4956.00
2018-07-02T11:33:42.351Z,4908.00
2018-07-02T11:34:42.383Z,4872.00
2018-07-02T11:35:42.376Z,4844.00
2018-07-02T11:36:42.396Z,4820.00
2018-07-02T11:37:42.408Z,4788.00
2018-07-02T11:38:42.417Z,4756.00
2018-07-02T11:39:42.429Z,4724.00
2018-07-02T11:40:42.438Z,4704.00
2018-07-02T11:41:42.446Z,4680.00
2018-07-02T11:42:42.457Z,4668.00
2018-07-02T11:43:42.467Z,4652.00
2018-07-02T11:44:42.484Z,4632.00
2018-07-02T11:45:42.495Z,4620.00
2018-07-02T11:46:42.496Z,4600.00
2018-07-02T11:47:42.504Z,4584.00
2018-07-02T11:48:42.517Z,4576.00
2018-07-02T11:49:42.570Z,4564.00
2018-07-02T11:50:42.537Z,4560.00
2018-07-02T11:51:42.543Z,4548.00
2018-07-02T11:52:42.547Z,4520.00
2018-07-02T11:53:42.555Z,4504.00
2018-07-02T11:54:42.564Z,4480.00
2018-07-02T11:55:42.569Z,4456.00
2018-07-02T11:56:42.581Z,4424.00
2018-07-02T11:57:42.589Z,4396.00
2018-07-02T11:58:42.597Z,4368.00
2018-07-02T11:59:42.605Z,4348.00
2018-07-02T12:00:42.604Z,4340.00
2018-07-02T12:01:42.611Z,4324.00
2018-07-02T12:02:42.624Z,4292.00
2018-07-02T12:03:42.628Z,4272.00
2018-07-02T12:04:42.630Z,4248.00
2018-07-02T12:05:42.640Z,4228.00
2018-07-02T12:06:42.646Z,4204.00
2018-07-02T12:07:42.650Z,4176.00
2018-07-02T12:08:42.659Z,4156.00
2018-07-02T12:09:42.666Z,4136.00
2018-07-02T12:10:42.672Z,4116.00
2018-07-02T12:11:42.679Z,4096.00